Accueil
METAR-TAF:

METAR-TAF

Aéroports :

Londres-Gatwick, Angleterre

Aéroport de Londres-Gatwick

latitude: 51-09N, longitude: 000-11W, altitude: 62 m

Observation

Le bulletin a été fait il y a 28 minutes, à 01:20 UTC
Vent 5 kt de sud-ouest
Température 12°C
Humidité 82%
Pression 1019 hPa
Visibilité 10 km ou plus
Nuages épars à une hauteur de 2600 ft

METAR: EGKK 170120Z 23005KT 9999 SCT026 12/09 Q1019

Heure: 02:48 (01:48 UTC)

Prévision

Le bulletin a été fait il y a 2 heures et 52 minutes, à 22:56 UTC
Prévision valable du 17 à 00 UTC au 18 à 06 UTC
Vent 12 kt de sud-ouest
Visibilité 10 km ou plus
Nuages épars à une hauteur de 3000 ft
Evoluant progressivement
du 17 à 16 UTC au 17 à 19 UTC
Vent 8 kt de est
Probabilité 30%
du 18 à 02 UTC au 18 à 06 UTC
Visibilité: 8000 m
Nuages fragmentés à une hauteur de 800 ft
pluie faible

TAF: EGKK 162256Z 1700/1806 23012KT 9999 SCT030 BECMG 1716/1719 08008KT PROB30 1802/1806 8000 -RA BKN008

Observations et prévisions météorologiques de plus de 4000 aéroports (messages METAR et TAF).

Les stations disponibles sont représentées par des disques jaunes et rouges sur la carte.

Passer la souris dessus pour voir le nom de la station.

Cliquer dessus pour voir les observations et prévisions météorologiques.

Pour changer de carte: cliquez sur les boutons verts avec une croix noire pour zoomer, sur le bouton vert avec un tiret pour effectuer un zoom arrière, ou sur les flèches vertes pour les cartes adjacentes.


METAR-TAF: